This is the latest recevied weather packets stored in our database for station/object EA1FBN. If no packets are shown the sender has not sent any weather packets the latest 10 day(s).
| Time | Temp. | Humidity | Pressure | Rain* | Wind** | Luminosity | Snow |
|---|---|---|---|---|---|---|---|
| 1787658033 | 20.56° C | 63% | 1015 hPa | 0 mm | - | - | - |
| 1787657433 | 20° C | 66% | 1015.1 hPa | 0 mm | - | - | - |
| 1787657133 | 19.44° C | 67% | 1015.1 hPa | 0 mm | - | - | - |
| 1787656533 | 19.44° C | 66% | 1015.2 hPa | 0 mm | - | - | - |
| 1787656233 | 19.44° C | 66% | 1015.2 hPa | 0 mm | - | - | - |
| 1787655633 | 19.44° C | 66% | 1015.2 hPa | 0 mm | - | - | - |
| 1787655333 | 19.44° C | 67% | 1015.1 hPa | 0 mm | - | - | - |
| 1787654733 | 19.44° C | 67% | 1015.1 hPa | 0 mm | - | - | - |
| 1787654433 | 19.44° C | 68% | 1015.2 hPa | 0 mm | - | - | - |
| 1787653833 | 18.89° C | 70% | 1015.2 hPa | 0 mm | - | - | - |
| 1787653533 | 18.89° C | 71% | 1015.2 hPa | 0 mm | - | - | - |
| 1787652933 | 19.44° C | 71% | 1015.3 hPa | 0 mm | - | - | - |
| 1787652633 | 18.89° C | 71% | 1015.3 hPa | 0 mm | - | - | - |
| 1787652033 | 18.89° C | 71% | 1015.2 hPa | 0 mm | - | - | - |
| 1787651733 | 18.89° C | 73% | 1015.2 hPa | 0 mm | - | - | - |
| 1787651133 | 18.33° C | 73% | 1015.2 hPa | 0 mm | - | - | - |
| 1787650833 | 18.33° C | 74% | 1015.2 hPa | 0 mm | - | - | - |
| 1787650233 | 18.33° C | 75% | 1015 hPa | 0 mm | - | - | - |
| 1787649933 | 18.33° C | 75% | 1015.1 hPa | 0 mm | - | - | - |
| 1787649333 | 17.78° C | 77% | 1014.9 hPa | 0 mm | - | - | - |
| 1787649033 | 17.78° C | 77% | 1014.8 hPa | 0 mm | - | - | - |
| 1787648433 | 17.78° C | 78% | 1014.9 hPa | 0 mm | - | - | - |
| 1787648133 | 17.78° C | 77% | 1014.9 hPa | 0 mm | - | - | - |
| 1787647533 | 18.33° C | 75% | 1014.9 hPa | 0 mm | - | - | - |
| 1787647233 | 18.33° C | 74% | 1014.8 hPa | 0 mm | - | - | - |
* Rain latest hour (hover to see other rain measurements)
** Current wind speed in m/s (hover to see current wind gust speed)